sensor_id;sensor_type;location;lat;lon;timestamp;P1;durP1;ratioP1;P2;durP2;ratioP2
60610;SDS011;46439;51.164;13.572;2023-12-04T00:00:43;54.90;;;23.10;;
60610;SDS011;46439;51.164;13.572;2023-12-04T00:03:11;44.90;;;21.20;;
60610;SDS011;46439;51.164;13.572;2023-12-04T00:05:41;34.20;;;17.40;;
60610;SDS011;46439;51.164;13.572;2023-12-04T00:08:10;33.20;;;16.10;;
60610;SDS011;46439;51.164;13.572;2023-12-04T00:10:38;32.90;;;16.70;;
60610;SDS011;46439;51.164;13.572;2023-12-04T00:13:07;35.50;;;17.50;;
60610;SDS011;46439;51.164;13.572;2023-12-04T00:15:35;31.90;;;16.90;;
60610;SDS011;46439;51.164;13.572;2023-12-04T00:18:03;30.40;;;15.20;;
60610;SDS011;46439;51.164;13.572;2023-12-04T00:20:32;26.90;;;14.10;;
60610;SDS011;46439;51.164;13.572;2023-12-04T00:23:00;28.30;;;13.50;;
60610;SDS011;46439;51.164;13.572;2023-12-04T00:25:29;30.90;;;14.40;;
60610;SDS011;46439;51.164;13.572;2023-12-04T00:27:59;29.10;;;14.20;;
60610;SDS011;46439;51.164;13.572;2023-12-04T00:30:27;23.40;;;13.30;;
60610;SDS011;46439;51.164;13.572;2023-12-04T00:32:55;23.40;;;12.80;;
60610;SDS011;46439;51.164;13.572;2023-12-04T00:35:23;23.90;;;13.10;;
60610;SDS011;46439;51.164;13.572;2023-12-04T00:37:51;23.70;;;12.50;;
60610;SDS011;46439;51.164;13.572;2023-12-04T00:40:20;22.30;;;12.10;;
60610;SDS011;46439;51.164;13.572;2023-12-04T00:42:48;19.80;;;10.90;;
60610;SDS011;46439;51.164;13.572;2023-12-04T00:45:16;19.80;;;10.80;;
60610;SDS011;46439;51.164;13.572;2023-12-04T00:47:44;19.40;;;11.10;;
60610;SDS011;46439;51.164;13.572;2023-12-04T00:50:13;22.80;;;11.20;;
60610;SDS011;46439;51.164;13.572;2023-12-04T00:52:41;20.60;;;10.80;;
60610;SDS011;46439;51.164;13.572;2023-12-04T00:55:09;18.60;;;10.90;;
60610;SDS011;46439;51.164;13.572;2023-12-04T00:57:38;20.00;;;10.70;;
60610;SDS011;46439;51.164;13.572;2023-12-04T01:00:07;18.90;;;10.10;;
60610;SDS011;46439;51.164;13.572;2023-12-04T01:02:37;21.30;;;10.50;;
60610;SDS011;46439;51.164;13.572;2023-12-04T01:05:05;19.90;;;10.40;;
60610;SDS011;46439;51.164;13.572;2023-12-04T01:07:34;19.50;;;10.60;;
60610;SDS011;46439;51.164;13.572;2023-12-04T01:10:03;19.80;;;10.70;;
60610;SDS011;46439;51.164;13.572;2023-12-04T01:12:32;19.50;;;10.10;;
60610;SDS011;46439;51.164;13.572;2023-12-04T01:15:00;18.30;;;10.20;;
60610;SDS011;46439;51.164;13.572;2023-12-04T01:17:29;20.80;;;10.80;;
60610;SDS011;46439;51.164;13.572;2023-12-04T01:19:58;21.90;;;10.40;;
60610;SDS011;46439;51.164;13.572;2023-12-04T01:22:29;19.00;;;9.50;;
60610;SDS011;46439;51.164;13.572;2023-12-04T01:24:57;19.20;;;8.70;;
60610;SDS011;46439;51.164;13.572;2023-12-04T01:27:25;18.10;;;10.20;;
60610;SDS011;46439;51.164;13.572;2023-12-04T01:29:53;18.10;;;9.90;;
60610;SDS011;46439;51.164;13.572;2023-12-04T01:32:21;18.80;;;9.60;;
60610;SDS011;46439;51.164;13.572;2023-12-04T01:34:49;20.70;;;10.10;;
60610;SDS011;46439;51.164;13.572;2023-12-04T01:37:17;20.20;;;9.70;;
60610;SDS011;46439;51.164;13.572;2023-12-04T01:39:45;19.50;;;10.40;;
60610;SDS011;46439;51.164;13.572;2023-12-04T01:42:13;17.40;;;9.90;;
60610;SDS011;46439;51.164;13.572;2023-12-04T01:44:42;16.50;;;9.20;;
60610;SDS011;46439;51.164;13.572;2023-12-04T01:47:10;20.20;;;10.90;;
60610;SDS011;46439;51.164;13.572;2023-12-04T01:49:39;18.10;;;9.80;;
60610;SDS011;46439;51.164;13.572;2023-12-04T01:52:08;17.80;;;9.90;;
60610;SDS011;46439;51.164;13.572;2023-12-04T01:54:37;20.60;;;10.10;;
60610;SDS011;46439;51.164;13.572;2023-12-04T01:57:06;18.70;;;10.20;;
60610;SDS011;46439;51.164;13.572;2023-12-04T01:59:35;20.60;;;10.10;;
60610;SDS011;46439;51.164;13.572;2023-12-04T02:02:04;18.20;;;9.60;;
60610;SDS011;46439;51.164;13.572;2023-12-04T02:04:33;18.30;;;9.60;;
60610;SDS011;46439;51.164;13.572;2023-12-04T02:07:01;18.90;;;9.70;;
60610;SDS011;46439;51.164;13.572;2023-12-04T02:09:30;17.40;;;9.40;;
60610;SDS011;46439;51.164;13.572;2023-12-04T02:11:58;17.40;;;9.60;;
60610;SDS011;46439;51.164;13.572;2023-12-04T02:14:27;17.30;;;9.70;;
60610;SDS011;46439;51.164;13.572;2023-12-04T02:16:56;17.40;;;9.30;;
60610;SDS011;46439;51.164;13.572;2023-12-04T02:19:27;16.70;;;9.10;;
60610;SDS011;46439;51.164;13.572;2023-12-04T02:21:55;19.50;;;9.70;;
60610;SDS011;46439;51.164;13.572;2023-12-04T02:24:24;17.80;;;9.40;;
60610;SDS011;46439;51.164;13.572;2023-12-04T02:26:54;17.20;;;8.90;;
60610;SDS011;46439;51.164;13.572;2023-12-04T02:29:31;16.50;;;8.70;;
60610;SDS011;46439;51.164;13.572;2023-12-04T02:32:05;18.30;;;9.70;;
60610;SDS011;46439;51.164;13.572;2023-12-04T02:34:34;18.40;;;9.20;;
60610;SDS011;46439;51.164;13.572;2023-12-04T02:37:05;15.90;;;8.70;;
60610;SDS011;46439;51.164;13.572;2023-12-04T02:39:37;16.30;;;8.80;;
60610;SDS011;46439;51.164;13.572;2023-12-04T02:42:41;18.90;;;9.10;;
60610;SDS011;46439;51.164;13.572;2023-12-04T02:45:21;19.20;;;8.70;;
60610;SDS011;46439;51.164;13.572;2023-12-04T02:48:33;17.80;;;9.00;;
60610;SDS011;46439;51.164;13.572;2023-12-04T02:51:55;17.00;;;9.00;;
60610;SDS011;46439;51.164;13.572;2023-12-04T02:55:00;16.10;;;9.00;;
60610;SDS011;46439;51.164;13.572;2023-12-04T02:58:02;18.90;;;9.70;;
60610;SDS011;46439;51.164;13.572;2023-12-04T03:00:51;18.50;;;9.50;;
60610;SDS011;46439;51.164;13.572;2023-12-04T03:03:19;18.10;;;9.80;;
60610;SDS011;46439;51.164;13.572;2023-12-04T03:05:47;22.50;;;10.70;;
60610;SDS011;46439;51.164;13.572;2023-12-04T03:08:16;17.90;;;9.50;;
60610;SDS011;46439;51.164;13.572;2023-12-04T03:10:44;16.90;;;9.60;;
60610;SDS011;46439;51.164;13.572;2023-12-04T03:13:14;16.70;;;9.90;;
60610;SDS011;46439;51.164;13.572;2023-12-04T03:15:43;20.10;;;10.40;;
60610;SDS011;46439;51.164;13.572;2023-12-04T03:18:12;21.40;;;10.60;;
60610;SDS011;46439;51.164;13.572;2023-12-04T03:20:40;21.90;;;11.40;;
60610;SDS011;46439;51.164;13.572;2023-12-04T03:23:09;19.80;;;10.70;;
60610;SDS011;46439;51.164;13.572;2023-12-04T03:25:38;19.90;;;10.80;;
60610;SDS011;46439;51.164;13.572;2023-12-04T03:28:09;20.00;;;10.70;;
60610;SDS011;46439;51.164;13.572;2023-12-04T03:30:37;22.20;;;10.20;;
60610;SDS011;46439;51.164;13.572;2023-12-04T03:33:06;20.80;;;10.40;;
60610;SDS011;46439;51.164;13.572;2023-12-04T03:35:34;20.10;;;10.70;;
60610;SDS011;46439;51.164;13.572;2023-12-04T03:38:03;20.10;;;10.80;;
60610;SDS011;46439;51.164;13.572;2023-12-04T03:40:31;19.80;;;11.30;;
60610;SDS011;46439;51.164;13.572;2023-12-04T03:42:59;21.00;;;10.00;;
60610;SDS011;46439;51.164;13.572;2023-12-04T03:45:27;23.60;;;11.60;;
60610;SDS011;46439;51.164;13.572;2023-12-04T03:47:55;20.20;;;10.40;;
60610;SDS011;46439;51.164;13.572;2023-12-04T03:50:23;21.50;;;10.40;;
60610;SDS011;46439;51.164;13.572;2023-12-04T03:52:52;19.80;;;10.50;;
60610;SDS011;46439;51.164;13.572;2023-12-04T03:55:20;16.90;;;9.20;;
60610;SDS011;46439;51.164;13.572;2023-12-04T03:57:48;20.90;;;10.40;;
60610;SDS011;46439;51.164;13.572;2023-12-04T04:00:17;19.50;;;10.20;;
60610;SDS011;46439;51.164;13.572;2023-12-04T04:02:47;19.80;;;11.20;;
60610;SDS011;46439;51.164;13.572;2023-12-04T04:05:18;22.10;;;11.30;;
60610;SDS011;46439;51.164;13.572;2023-12-04T04:07:51;20.40;;;10.90;;
60610;SDS011;46439;51.164;13.572;2023-12-04T04:10:19;17.60;;;10.00;;
60610;SDS011;46439;51.164;13.572;2023-12-04T04:12:47;20.30;;;11.00;;
60610;SDS011;46439;51.164;13.572;2023-12-04T04:15:15;20.80;;;10.70;;
60610;SDS011;46439;51.164;13.572;2023-12-04T04:17:44;19.60;;;10.20;;
60610;SDS011;46439;51.164;13.572;2023-12-04T04:20:12;19.40;;;10.00;;
60610;SDS011;46439;51.164;13.572;2023-12-04T04:22:41;22.20;;;10.40;;
60610;SDS011;46439;51.164;13.572;2023-12-04T04:25:09;20.30;;;10.10;;
60610;SDS011;46439;51.164;13.572;2023-12-04T04:27:37;21.20;;;11.30;;
60610;SDS011;46439;51.164;13.572;2023-12-04T04:30:06;22.30;;;10.80;;
60610;SDS011;46439;51.164;13.572;2023-12-04T04:32:35;20.10;;;10.40;;
60610;SDS011;46439;51.164;13.572;2023-12-04T04:35:04;19.50;;;10.70;;
60610;SDS011;46439;51.164;13.572;2023-12-04T04:37:33;21.70;;;11.20;;
60610;SDS011;46439;51.164;13.572;2023-12-04T04:40:02;19.80;;;11.30;;
60610;SDS011;46439;51.164;13.572;2023-12-04T04:42:31;23.50;;;12.30;;
60610;SDS011;46439;51.164;13.572;2023-12-04T04:44:59;19.00;;;11.30;;
60610;SDS011;46439;51.164;13.572;2023-12-04T04:47:28;23.90;;;11.90;;
60610;SDS011;46439;51.164;13.572;2023-12-04T04:49:56;22.00;;;11.70;;
60610;SDS011;46439;51.164;13.572;2023-12-04T04:52:24;22.70;;;11.20;;
60610;SDS011;46439;51.164;13.572;2023-12-04T04:54:52;22.50;;;12.10;;
60610;SDS011;46439;51.164;13.572;2023-12-04T04:57:20;24.90;;;12.10;;
60610;SDS011;46439;51.164;13.572;2023-12-04T04:59:48;27.10;;;12.10;;
60610;SDS011;46439;51.164;13.572;2023-12-04T05:02:16;23.20;;;12.30;;
60610;SDS011;46439;51.164;13.572;2023-12-04T05:04:45;24.40;;;12.20;;
60610;SDS011;46439;51.164;13.572;2023-12-04T05:07:13;19.70;;;11.60;;
60610;SDS011;46439;51.164;13.572;2023-12-04T05:09:41;22.50;;;11.50;;
60610;SDS011;46439;51.164;13.572;2023-12-04T05:12:09;24.80;;;11.60;;
60610;SDS011;46439;51.164;13.572;2023-12-04T05:14:37;24.30;;;12.50;;
60610;SDS011;46439;51.164;13.572;2023-12-04T05:17:05;23.90;;;12.20;;
60610;SDS011;46439;51.164;13.572;2023-12-04T05:19:33;22.70;;;12.40;;
60610;SDS011;46439;51.164;13.572;2023-12-04T05:22:01;24.50;;;11.90;;
60610;SDS011;46439;51.164;13.572;2023-12-04T05:24:30;28.40;;;13.30;;
60610;SDS011;46439;51.164;13.572;2023-12-04T05:26:58;26.10;;;13.00;;
60610;SDS011;46439;51.164;13.572;2023-12-04T05:29:26;24.10;;;12.60;;
60610;SDS011;46439;51.164;13.572;2023-12-04T05:31:54;25.90;;;12.50;;
60610;SDS011;46439;51.164;13.572;2023-12-04T05:34:23;24.20;;;12.10;;
60610;SDS011;46439;51.164;13.572;2023-12-04T05:36:51;21.00;;;12.40;;
60610;SDS011;46439;51.164;13.572;2023-12-04T05:39:20;22.20;;;11.40;;
60610;SDS011;46439;51.164;13.572;2023-12-04T05:41:48;25.00;;;12.60;;
60610;SDS011;46439;51.164;13.572;2023-12-04T05:44:16;20.80;;;11.70;;
60610;SDS011;46439;51.164;13.572;2023-12-04T05:46:44;24.20;;;12.80;;
60610;SDS011;46439;51.164;13.572;2023-12-04T05:49:12;24.20;;;13.10;;
60610;SDS011;46439;51.164;13.572;2023-12-04T05:51:40;22.10;;;11.60;;
60610;SDS011;46439;51.164;13.572;2023-12-04T05:54:09;27.20;;;13.30;;
60610;SDS011;46439;51.164;13.572;2023-12-04T05:56:37;25.40;;;12.40;;
60610;SDS011;46439;51.164;13.572;2023-12-04T05:59:05;24.00;;;12.20;;
60610;SDS011;46439;51.164;13.572;2023-12-04T06:01:33;27.30;;;13.60;;
60610;SDS011;46439;51.164;13.572;2023-12-04T06:04:01;26.80;;;13.50;;
60610;SDS011;46439;51.164;13.572;2023-12-04T06:06:30;25.70;;;12.90;;
60610;SDS011;46439;51.164;13.572;2023-12-04T06:08:58;22.70;;;12.00;;
60610;SDS011;46439;51.164;13.572;2023-12-04T06:11:26;26.00;;;12.40;;
60610;SDS011;46439;51.164;13.572;2023-12-04T06:13:54;25.60;;;12.90;;
60610;SDS011;46439;51.164;13.572;2023-12-04T06:16:22;23.50;;;12.50;;
60610;SDS011;46439;51.164;13.572;2023-12-04T06:18:51;25.20;;;12.20;;
60610;SDS011;46439;51.164;13.572;2023-12-04T06:21:19;25.90;;;12.70;;
60610;SDS011;46439;51.164;13.572;2023-12-04T06:23:48;26.20;;;12.20;;
60610;SDS011;46439;51.164;13.572;2023-12-04T06:26:17;24.50;;;11.90;;
60610;SDS011;46439;51.164;13.572;2023-12-04T06:28:46;21.70;;;11.70;;
60610;SDS011;46439;51.164;13.572;2023-12-04T06:31:16;22.40;;;12.50;;
60610;SDS011;46439;51.164;13.572;2023-12-04T06:33:46;22.20;;;10.60;;
60610;SDS011;46439;51.164;13.572;2023-12-04T06:36:16;25.90;;;12.00;;
60610;SDS011;46439;51.164;13.572;2023-12-04T06:38:47;22.00;;;11.50;;
60610;SDS011;46439;51.164;13.572;2023-12-04T06:41:19;28.10;;;11.90;;
60610;SDS011;46439;51.164;13.572;2023-12-04T06:43:54;23.50;;;11.60;;
60610;SDS011;46439;51.164;13.572;2023-12-04T06:46:24;22.90;;;11.50;;
60610;SDS011;46439;51.164;13.572;2023-12-04T06:48:57;23.90;;;11.80;;
60610;SDS011;46439;51.164;13.572;2023-12-04T06:51:30;21.70;;;11.00;;
60610;SDS011;46439;51.164;13.572;2023-12-04T06:53:59;21.30;;;11.50;;
60610;SDS011;46439;51.164;13.572;2023-12-04T06:56:28;25.30;;;11.20;;
60610;SDS011;46439;51.164;13.572;2023-12-04T06:58:57;22.50;;;10.90;;
60610;SDS011;46439;51.164;13.572;2023-12-04T07:01:27;22.90;;;11.70;;
60610;SDS011;46439;51.164;13.572;2023-12-04T07:03:56;22.80;;;11.30;;
60610;SDS011;46439;51.164;13.572;2023-12-04T07:06:24;22.30;;;11.10;;
60610;SDS011;46439;51.164;13.572;2023-12-04T07:08:58;24.00;;;10.80;;
60610;SDS011;46439;51.164;13.572;2023-12-04T07:11:38;18.80;;;10.20;;
60610;SDS011;46439;51.164;13.572;2023-12-04T07:14:17;21.80;;;10.60;;
60610;SDS011;46439;51.164;13.572;2023-12-04T07:16:45;19.20;;;10.20;;
60610;SDS011;46439;51.164;13.572;2023-12-04T07:19:18;20.10;;;10.20;;
60610;SDS011;46439;51.164;13.572;2023-12-04T07:22:02;22.80;;;12.20;;
60610;SDS011;46439;51.164;13.572;2023-12-04T07:24:36;22.30;;;11.90;;
60610;SDS011;46439;51.164;13.572;2023-12-04T07:27:07;19.90;;;10.30;;
60610;SDS011;46439;51.164;13.572;2023-12-04T07:29:38;19.30;;;10.20;;
60610;SDS011;46439;51.164;13.572;2023-12-04T07:32:07;19.60;;;9.70;;
60610;SDS011;46439;51.164;13.572;2023-12-04T07:34:35;19.40;;;10.90;;
60610;SDS011;46439;51.164;13.572;2023-12-04T07:37:10;21.50;;;10.60;;
60610;SDS011;46439;51.164;13.572;2023-12-04T07:39:38;19.60;;;10.40;;
60610;SDS011;46439;51.164;13.572;2023-12-04T07:42:08;20.60;;;10.20;;
60610;SDS011;46439;51.164;13.572;2023-12-04T07:44:39;18.90;;;9.80;;
60610;SDS011;46439;51.164;13.572;2023-12-04T07:47:07;17.90;;;9.70;;
60610;SDS011;46439;51.164;13.572;2023-12-04T07:49:36;19.40;;;9.60;;
60610;SDS011;46439;51.164;13.572;2023-12-04T07:52:08;19.60;;;10.10;;
60610;SDS011;46439;51.164;13.572;2023-12-04T07:54:47;19.40;;;9.40;;
60610;SDS011;46439;51.164;13.572;2023-12-04T07:57:24;17.30;;;9.30;;
60610;SDS011;46439;51.164;13.572;2023-12-04T07:59:57;13.50;;;6.90;;
60610;SDS011;46439;51.164;13.572;2023-12-04T08:02:27;14.00;;;6.80;;
60610;SDS011;46439;51.164;13.572;2023-12-04T08:05:00;16.50;;;7.40;;
60610;SDS011;46439;51.164;13.572;2023-12-04T08:07:32;14.30;;;8.20;;
60610;SDS011;46439;51.164;13.572;2023-12-04T08:10:09;16.80;;;8.20;;
60610;SDS011;46439;51.164;13.572;2023-12-04T08:12:38;14.70;;;6.80;;
60610;SDS011;46439;51.164;13.572;2023-12-04T08:15:07;14.70;;;8.30;;
60610;SDS011;46439;51.164;13.572;2023-12-04T08:17:36;16.10;;;8.70;;
60610;SDS011;46439;51.164;13.572;2023-12-04T08:20:06;13.90;;;6.50;;
60610;SDS011;46439;51.164;13.572;2023-12-04T08:22:40;14.70;;;7.70;;
60610;SDS011;46439;51.164;13.572;2023-12-04T08:25:23;12.90;;;7.00;;
60610;SDS011;46439;51.164;13.572;2023-12-04T08:27:57;14.90;;;7.30;;
60610;SDS011;46439;51.164;13.572;2023-12-04T08:30:26;15.90;;;8.00;;
60610;SDS011;46439;51.164;13.572;2023-12-04T08:32:54;12.20;;;6.20;;
60610;SDS011;46439;51.164;13.572;2023-12-04T08:35:23;13.10;;;7.20;;
60610;SDS011;46439;51.164;13.572;2023-12-04T08:37:52;13.70;;;6.60;;
60610;SDS011;46439;51.164;13.572;2023-12-04T08:40:20;13.10;;;7.50;;
60610;SDS011;46439;51.164;13.572;2023-12-04T08:42:48;15.60;;;8.10;;
60610;SDS011;46439;51.164;13.572;2023-12-04T08:45:19;12.30;;;7.00;;
60610;SDS011;46439;51.164;13.572;2023-12-04T08:48:00;15.20;;;7.80;;
60610;SDS011;46439;51.164;13.572;2023-12-04T08:50:28;13.60;;;7.60;;
60610;SDS011;46439;51.164;13.572;2023-12-04T08:52:56;14.20;;;7.80;;
60610;SDS011;46439;51.164;13.572;2023-12-04T08:55:25;12.50;;;7.50;;
60610;SDS011;46439;51.164;13.572;2023-12-04T08:57:53;13.30;;;6.50;;
60610;SDS011;46439;51.164;13.572;2023-12-04T09:00:22;12.80;;;7.20;;
60610;SDS011;46439;51.164;13.572;2023-12-04T09:02:51;13.30;;;6.40;;
60610;SDS011;46439;51.164;13.572;2023-12-04T09:05:29;14.50;;;7.10;;
60610;SDS011;46439;51.164;13.572;2023-12-04T09:10:24;13.90;;;7.90;;
60610;SDS011;46439;51.164;13.572;2023-12-04T09:12:55;12.40;;;7.10;;
60610;SDS011;46439;51.164;13.572;2023-12-04T09:15:23;10.10;;;5.80;;
60610;SDS011;46439;51.164;13.572;2023-12-04T09:17:52;14.90;;;7.40;;
60610;SDS011;46439;51.164;13.572;2023-12-04T09:20:20;12.80;;;7.40;;
60610;SDS011;46439;51.164;13.572;2023-12-04T09:22:51;12.80;;;7.30;;
60610;SDS011;46439;51.164;13.572;2023-12-04T09:25:29;14.40;;;7.70;;
60610;SDS011;46439;51.164;13.572;2023-12-04T09:28:06;14.80;;;8.00;;
60610;SDS011;46439;51.164;13.572;2023-12-04T09:30:35;16.00;;;8.10;;
60610;SDS011;46439;51.164;13.572;2023-12-04T09:33:04;12.30;;;7.00;;
60610;SDS011;46439;51.164;13.572;2023-12-04T09:35:33;12.40;;;6.80;;
60610;SDS011;46439;51.164;13.572;2023-12-04T09:38:01;14.70;;;8.20;;
60610;SDS011;46439;51.164;13.572;2023-12-04T09:40:29;10.80;;;6.90;;
60610;SDS011;46439;51.164;13.572;2023-12-04T09:42:59;13.10;;;7.00;;
60610;SDS011;46439;51.164;13.572;2023-12-04T09:45:27;15.10;;;7.60;;
60610;SDS011;46439;51.164;13.572;2023-12-04T09:47:58;12.30;;;7.20;;
60610;SDS011;46439;51.164;13.572;2023-12-04T09:50:27;13.00;;;8.00;;
60610;SDS011;46439;51.164;13.572;2023-12-04T09:52:58;15.60;;;7.80;;
60610;SDS011;46439;51.164;13.572;2023-12-04T09:55:29;11.40;;;6.50;;
60610;SDS011;46439;51.164;13.572;2023-12-04T09:57:57;12.80;;;7.00;;
60610;SDS011;46439;51.164;13.572;2023-12-04T10:00:26;13.80;;;6.80;;
60610;SDS011;46439;51.164;13.572;2023-12-04T10:02:55;16.80;;;7.80;;
60610;SDS011;46439;51.164;13.572;2023-12-04T10:05:24;14.80;;;8.00;;
60610;SDS011;46439;51.164;13.572;2023-12-04T10:07:52;12.10;;;7.20;;
60610;SDS011;46439;51.164;13.572;2023-12-04T10:10:24;11.10;;;6.70;;
60610;SDS011;46439;51.164;13.572;2023-12-04T10:12:59;10.90;;;6.90;;
60610;SDS011;46439;51.164;13.572;2023-12-04T10:15:45;17.80;;;9.10;;
60610;SDS011;46439;51.164;13.572;2023-12-04T10:18:39;13.40;;;7.30;;
60610;SDS011;46439;51.164;13.572;2023-12-04T10:21:13;11.90;;;7.00;;
60610;SDS011;46439;51.164;13.572;2023-12-04T10:23:42;14.60;;;7.40;;
60610;SDS011;46439;51.164;13.572;2023-12-04T10:26:11;14.20;;;7.30;;
60610;SDS011;46439;51.164;13.572;2023-12-04T10:28:43;13.90;;;7.90;;
60610;SDS011;46439;51.164;13.572;2023-12-04T10:31:28;12.50;;;6.70;;
60610;SDS011;46439;51.164;13.572;2023-12-04T10:34:07;13.40;;;7.20;;
60610;SDS011;46439;51.164;13.572;2023-12-04T10:36:40;14.60;;;7.10;;
60610;SDS011;46439;51.164;13.572;2023-12-04T10:39:09;13.10;;;7.50;;
60610;SDS011;46439;51.164;13.572;2023-12-04T10:41:40;14.20;;;7.70;;
60610;SDS011;46439;51.164;13.572;2023-12-04T10:44:28;14.00;;;7.20;;
60610;SDS011;46439;51.164;13.572;2023-12-04T10:47:00;14.20;;;7.70;;
60610;SDS011;46439;51.164;13.572;2023-12-04T10:49:29;13.60;;;7.30;;
60610;SDS011;46439;51.164;13.572;2023-12-04T10:51:58;13.50;;;7.30;;
60610;SDS011;46439;51.164;13.572;2023-12-04T10:54:28;14.40;;;7.30;;
60610;SDS011;46439;51.164;13.572;2023-12-04T10:57:03;15.30;;;7.90;;
60610;SDS011;46439;51.164;13.572;2023-12-04T10:59:36;14.70;;;7.80;;
60610;SDS011;46439;51.164;13.572;2023-12-04T11:02:06;12.80;;;7.70;;
60610;SDS011;46439;51.164;13.572;2023-12-04T11:04:43;11.70;;;6.90;;
60610;SDS011;46439;51.164;13.572;2023-12-04T11:07:16;13.60;;;8.60;;
60610;SDS011;46439;51.164;13.572;2023-12-04T11:09:56;11.00;;;6.10;;
60610;SDS011;46439;51.164;13.572;2023-12-04T11:12:37;10.40;;;5.90;;
60610;SDS011;46439;51.164;13.572;2023-12-04T11:15:10;14.70;;;7.80;;
60610;SDS011;46439;51.164;13.572;2023-12-04T11:22:49;11.50;;;6.90;;
60610;SDS011;46439;51.164;13.572;2023-12-04T11:25:23;13.80;;;7.10;;
60610;SDS011;46439;51.164;13.572;2023-12-04T11:27:55;12.40;;;6.50;;
60610;SDS011;46439;51.164;13.572;2023-12-04T11:30:34;16.10;;;7.90;;
60610;SDS011;46439;51.164;13.572;2023-12-04T11:33:08;13.50;;;7.60;;
60610;SDS011;46439;51.164;13.572;2023-12-04T11:35:40;15.00;;;7.30;;
60610;SDS011;46439;51.164;13.572;2023-12-04T11:38:17;10.70;;;6.20;;
60610;SDS011;46439;51.164;13.572;2023-12-04T11:40:47;15.60;;;8.60;;
60610;SDS011;46439;51.164;13.572;2023-12-04T11:43:25;13.20;;;7.70;;
60610;SDS011;46439;51.164;13.572;2023-12-04T11:46:09;12.30;;;6.80;;
60610;SDS011;46439;51.164;13.572;2023-12-04T11:52:07;13.60;;;7.50;;
60610;SDS011;46439;51.164;13.572;2023-12-04T11:57:39;12.90;;;6.70;;
60610;SDS011;46439;51.164;13.572;2023-12-04T12:00:25;14.90;;;7.60;;
60610;SDS011;46439;51.164;13.572;2023-12-04T12:03:05;9.10;;;5.40;;
60610;SDS011;46439;51.164;13.572;2023-12-04T12:05:39;13.50;;;7.10;;
60610;SDS011;46439;51.164;13.572;2023-12-04T12:08:38;14.30;;;8.10;;
60610;SDS011;46439;51.164;13.572;2023-12-04T12:11:29;12.40;;;7.00;;
60610;SDS011;46439;51.164;13.572;2023-12-04T12:14:00;13.30;;;7.10;;
60610;SDS011;46439;51.164;13.572;2023-12-04T12:16:35;12.70;;;7.10;;
60610;SDS011;46439;51.164;13.572;2023-12-04T12:19:11;14.40;;;7.80;;
60610;SDS011;46439;51.164;13.572;2023-12-04T12:21:49;14.30;;;7.20;;
60610;SDS011;46439;51.164;13.572;2023-12-04T12:24:22;12.60;;;6.80;;
60610;SDS011;46439;51.164;13.572;2023-12-04T12:26:56;13.30;;;7.60;;
60610;SDS011;46439;51.164;13.572;2023-12-04T12:29:30;13.60;;;7.30;;
60610;SDS011;46439;51.164;13.572;2023-12-04T12:32:04;13.50;;;7.20;;
60610;SDS011;46439;51.164;13.572;2023-12-04T12:34:40;14.60;;;7.80;;
60610;SDS011;46439;51.164;13.572;2023-12-04T12:40:13;15.10;;;7.20;;
60610;SDS011;46439;51.164;13.572;2023-12-04T12:42:50;12.90;;;7.10;;
60610;SDS011;46439;51.164;13.572;2023-12-04T12:45:19;12.00;;;7.00;;
60610;SDS011;46439;51.164;13.572;2023-12-04T12:47:47;12.30;;;7.30;;
60610;SDS011;46439;51.164;13.572;2023-12-04T12:50:17;14.80;;;7.80;;
60610;SDS011;46439;51.164;13.572;2023-12-04T12:52:46;11.60;;;7.20;;
60610;SDS011;46439;51.164;13.572;2023-12-04T12:55:23;13.20;;;7.80;;
60610;SDS011;46439;51.164;13.572;2023-12-04T12:57:53;24.50;;;14.70;;
60610;SDS011;46439;51.164;13.572;2023-12-04T13:00:24;14.60;;;8.30;;
60610;SDS011;46439;51.164;13.572;2023-12-04T13:02:53;13.00;;;7.10;;
60610;SDS011;46439;51.164;13.572;2023-12-04T13:05:22;16.50;;;7.90;;
60610;SDS011;46439;51.164;13.572;2023-12-04T13:07:50;15.30;;;7.70;;
60610;SDS011;46439;51.164;13.572;2023-12-04T13:10:19;12.90;;;7.30;;
60610;SDS011;46439;51.164;13.572;2023-12-04T13:12:47;15.10;;;8.00;;
60610;SDS011;46439;51.164;13.572;2023-12-04T13:17:46;13.70;;;7.70;;
60610;SDS011;46439;51.164;13.572;2023-12-04T13:20:15;17.00;;;8.20;;
60610;SDS011;46439;51.164;13.572;2023-12-04T13:22:44;15.70;;;8.40;;
60610;SDS011;46439;51.164;13.572;2023-12-04T13:25:13;13.00;;;8.20;;
60610;SDS011;46439;51.164;13.572;2023-12-04T13:27:42;14.60;;;7.90;;
60610;SDS011;46439;51.164;13.572;2023-12-04T13:30:11;14.50;;;8.00;;
60610;SDS011;46439;51.164;13.572;2023-12-04T13:32:40;16.10;;;8.60;;
60610;SDS011;46439;51.164;13.572;2023-12-04T13:35:09;13.80;;;8.40;;
60610;SDS011;46439;51.164;13.572;2023-12-04T13:37:38;16.20;;;8.80;;
60610;SDS011;46439;51.164;13.572;2023-12-04T13:40:07;16.60;;;8.80;;
60610;SDS011;46439;51.164;13.572;2023-12-04T13:42:42;15.50;;;8.30;;
60610;SDS011;46439;51.164;13.572;2023-12-04T13:45:29;13.80;;;7.30;;
60610;SDS011;46439;51.164;13.572;2023-12-04T13:48:00;15.60;;;8.40;;
60610;SDS011;46439;51.164;13.572;2023-12-04T13:50:28;15.00;;;8.50;;
60610;SDS011;46439;51.164;13.572;2023-12-04T13:52:56;15.90;;;7.60;;
60610;SDS011;46439;51.164;13.572;2023-12-04T13:55:25;19.00;;;9.30;;
60610;SDS011;46439;51.164;13.572;2023-12-04T13:58:22;16.50;;;8.90;;
60610;SDS011;46439;51.164;13.572;2023-12-04T14:01:20;15.40;;;7.70;;
60610;SDS011;46439;51.164;13.572;2023-12-04T14:03:50;39.40;;;19.60;;
60610;SDS011;46439;51.164;13.572;2023-12-04T14:06:28;16.80;;;8.70;;
60610;SDS011;46439;51.164;13.572;2023-12-04T14:08:57;18.10;;;9.70;;
60610;SDS011;46439;51.164;13.572;2023-12-04T14:11:25;14.80;;;9.00;;
60610;SDS011;46439;51.164;13.572;2023-12-04T14:13:55;15.90;;;9.20;;
60610;SDS011;46439;51.164;13.572;2023-12-04T14:16:23;15.10;;;8.60;;
60610;SDS011;46439;51.164;13.572;2023-12-04T14:18:52;17.30;;;9.60;;
60610;SDS011;46439;51.164;13.572;2023-12-04T14:21:20;16.50;;;8.90;;
60610;SDS011;46439;51.164;13.572;2023-12-04T14:23:49;16.70;;;9.00;;
60610;SDS011;46439;51.164;13.572;2023-12-04T14:26:17;15.00;;;8.40;;
60610;SDS011;46439;51.164;13.572;2023-12-04T14:28:46;16.70;;;8.60;;
60610;SDS011;46439;51.164;13.572;2023-12-04T14:31:14;15.70;;;8.40;;
60610;SDS011;46439;51.164;13.572;2023-12-04T14:33:42;16.00;;;8.40;;
60610;SDS011;46439;51.164;13.572;2023-12-04T14:36:11;15.50;;;8.80;;
60610;SDS011;46439;51.164;13.572;2023-12-04T14:38:40;15.30;;;8.60;;
60610;SDS011;46439;51.164;13.572;2023-12-04T14:41:08;20.00;;;9.70;;
60610;SDS011;46439;51.164;13.572;2023-12-04T14:43:37;16.70;;;8.80;;
60610;SDS011;46439;51.164;13.572;2023-12-04T14:46:06;15.10;;;7.90;;
60610;SDS011;46439;51.164;13.572;2023-12-04T14:48:35;14.00;;;8.20;;
60610;SDS011;46439;51.164;13.572;2023-12-04T14:51:06;19.60;;;10.20;;
60610;SDS011;46439;51.164;13.572;2023-12-04T14:53:38;18.50;;;10.60;;
60610;SDS011;46439;51.164;13.572;2023-12-04T14:56:13;15.30;;;9.20;;
60610;SDS011;46439;51.164;13.572;2023-12-04T14:59:00;16.40;;;8.70;;